Time;durP1;ratioP1;P1;durP2;ratioP2;P2;SDS_P1;SDS_P2;PMS_P1;PMS_P2;Temp;Humidity;BMP_temperature;BMP_pressure;BME280_temperature;BME280_humidity;BME280_pressure;Samples;Min_cycle;Max_cycle;Signal;HPM_P1;HPM_P2
2022/09/18 00:00:53;;;;;;;4.83;0.90;;;8.10;99.90;;;;;;5054120;28;20193;-62
2022/09/18 00:03:19;;;;;;;4.87;0.70;;;8.10;99.90;;;;;;5072537;28;21007;-62
2022/09/18 00:05:44;;;;;;;3.67;1.13;;;8.10;99.90;;;;;;5072101;28;20181;-63
2022/09/18 00:08:10;;;;;;;1.60;0.90;;;8.10;99.90;;;;;;5072620;28;20181;-62
2022/09/18 00:10:41;;;;;;;3.40;1.20;;;8.00;99.90;;;;;;5072412;28;20252;-62
2022/09/18 00:13:06;;;;;;;1.83;0.90;;;8.10;99.90;;;;;;5072855;28;20177;-62
2022/09/18 00:15:32;;;;;;;2.17;0.70;;;8.10;99.90;;;;;;5070266;28;20434;-63
2022/09/18 00:17:57;;;;;;;1.50;0.80;;;8.10;99.90;;;;;;5072696;28;20197;-62
2022/09/18 00:20:23;;;;;;;3.30;1.60;;;8.10;99.90;;;;;;5072390;28;20185;-63
2022/09/18 00:22:49;;;;;;;1.60;0.73;;;8.00;99.90;;;;;;5071939;28;20287;-62
2022/09/18 00:25:14;;;;;;;1.90;0.80;;;8.10;99.90;;;;;;5065932;28;20239;-62
2022/09/18 00:27:40;;;;;;;1.53;0.70;;;8.10;99.90;;;;;;5072547;28;20222;-62
2022/09/18 00:30:06;;;;;;;5.60;1.00;;;8.10;99.90;;;;;;5068730;28;20174;-62
2022/09/18 00:32:32;;;;;;;1.67;0.70;;;8.10;99.90;;;;;;5080823;28;20535;-62
2022/09/18 00:34:57;;;;;;;3.17;1.07;;;8.10;99.90;;;;;;5075243;28;20416;-62
2022/09/18 00:37:23;;;;;;;2.43;0.83;;;8.10;99.90;;;;;;5064270;28;20178;-62
2022/09/18 00:39:48;;;;;;;1.73;0.73;;;8.10;99.90;;;;;;5072108;28;20181;-62
2022/09/18 00:42:14;;;;;;;2.53;0.90;;;8.10;99.90;;;;;;5072316;28;20177;-62
2022/09/18 00:44:41;;;;;;;1.63;0.97;;;8.10;99.90;;;;;;5071194;28;20566;-62
2022/09/18 00:47:10;;;;;;;1.77;0.70;;;8.10;99.90;;;;;;5071528;28;20177;-63
2022/09/18 00:49:38;;;;;;;2.80;0.97;;;8.10;99.90;;;;;;5053855;28;20492;-62
2022/09/18 00:52:04;;;;;;;11.27;0.93;;;8.10;99.90;;;;;;5071755;28;20412;-62
2022/09/18 00:54:38;;;;;;;1.30;0.70;;;8.10;99.90;;;;;;5072003;28;20941;-62
2022/09/18 00:57:07;;;;;;;3.53;1.27;;;8.10;99.90;;;;;;5078048;28;20410;-62
2022/09/18 00:59:35;;;;;;;1.97;0.80;;;8.20;99.90;;;;;;5071587;28;20460;-63
2022/09/18 01:02:02;;;;;;;14.40;1.33;;;8.20;99.90;;;;;;5071158;28;20424;-62
2022/09/18 01:04:28;;;;;;;1.30;0.70;;;8.30;99.90;;;;;;5071714;28;20463;-62
2022/09/18 01:07:19;;;;;;;2.80;1.23;;;8.30;99.90;;;;;;5071090;28;20404;-62
2022/09/18 01:09:51;;;;;;;10.03;1.47;;;8.30;99.90;;;;;;5071768;28;20412;-62
2022/09/18 01:12:44;;;;;;;7.03;1.07;;;8.40;99.90;;;;;;5071940;28;20408;-62
2022/09/18 01:15:29;;;;;;;1.87;0.70;;;8.40;99.90;;;;;;5070921;28;20419;-62
2022/09/18 01:18:01;;;;;;;4.30;1.40;;;8.40;99.90;;;;;;5071714;28;20914;-62
2022/09/18 01:20:48;;;;;;;2.23;1.27;;;8.50;99.90;;;;;;5071689;28;20411;-62
2022/09/18 01:23:29;;;;;;;2.97;0.67;;;8.50;99.90;;;;;;5067154;28;20455;-62
2022/09/18 01:25:55;;;;;;;2.23;1.00;;;8.50;99.90;;;;;;5064933;28;20415;-64
2022/09/18 01:28:24;;;;;;;2.83;1.37;;;8.50;99.90;;;;;;5071485;28;20414;-62
2022/09/18 01:30:55;;;;;;;4.67;1.30;;;8.50;99.90;;;;;;5069517;28;20173;-62
2022/09/18 01:33:39;;;;;;;4.80;1.50;;;8.50;99.90;;;;;;5083285;28;20427;-62
2022/09/18 01:36:09;;;;;;;4.03;1.20;;;8.60;99.90;;;;;;5075227;28;20887;-63
2022/09/18 01:38:48;;;;;;;2.13;1.20;;;8.60;99.90;;;;;;5057289;28;20427;-62
2022/09/18 01:41:20;;;;;;;11.90;2.23;;;8.60;99.90;;;;;;5075462;28;20415;-62
2022/09/18 01:43:49;;;;;;;5.33;0.90;;;8.50;99.90;;;;;;5075522;28;20485;-62
2022/09/18 01:46:16;;;;;;;6.10;1.43;;;8.50;99.90;;;;;;5072136;28;20411;-62
2022/09/18 01:48:57;;;;;;;2.47;1.00;;;8.50;99.90;;;;;;5064602;28;20495;-62
2022/09/18 01:51:28;;;;;;;2.53;0.90;;;8.50;99.90;;;;;;5075492;28;20427;-62
2022/09/18 01:54:02;;;;;;;5.90;0.80;;;8.50;99.90;;;;;;5075079;28;20504;-62
2022/09/18 01:56:42;;;;;;;2.47;0.80;;;8.50;99.90;;;;;;5078997;28;20500;-62
2022/09/18 01:59:17;;;;;;;4.07;1.37;;;8.50;99.90;;;;;;5080594;28;20410;-63
2022/09/18 02:01:45;;;;;;;1.80;0.80;;;8.50;99.90;;;;;;5075015;28;20423;-62
2022/09/18 02:04:17;;;;;;;5.83;1.30;;;8.50;99.90;;;;;;5074961;28;20471;-62
2022/09/18 02:06:56;;;;;;;1.40;0.80;;;8.40;99.90;;;;;;5074680;28;20403;-62
2022/09/18 02:09:22;;;;;;;4.07;1.50;;;8.40;99.90;;;;;;5061433;28;20502;-62
2022/09/18 02:11:51;;;;;;;6.27;1.07;;;8.40;99.90;;;;;;5074891;28;21014;-62
2022/09/18 02:14:23;;;;;;;1.20;0.50;;;8.40;99.90;;;;;;5069109;28;20182;-62
2022/09/18 02:17:04;;;;;;;3.63;1.40;;;8.40;99.90;;;;;;5066910;28;20895;-62
2022/09/18 02:19:41;;;;;;;3.20;1.27;;;8.50;99.90;;;;;;5063120;28;20431;-62
2022/09/18 02:22:12;;;;;;;1.73;0.87;;;8.40;99.90;;;;;;5074378;28;20419;-62
2022/09/18 02:24:41;;;;;;;1.63;0.63;;;8.40;99.90;;;;;;5071173;28;20455;-62
2022/09/18 02:27:10;;;;;;;2.43;0.93;;;8.30;99.90;;;;;;5071962;28;20526;-63
2022/09/18 02:29:36;;;;;;;3.53;1.10;;;8.30;99.90;;;;;;5074722;28;20411;-64
2022/09/18 02:32:02;;;;;;;3.80;1.13;;;8.30;99.90;;;;;;5078875;28;20431;-63
2022/09/18 02:34:30;;;;;;;9.23;1.17;;;8.30;99.90;;;;;;5079320;28;20434;-61
2022/09/18 02:36:55;;;;;;;3.40;1.00;;;8.30;99.90;;;;;;5074242;28;20423;-61
2022/09/18 02:39:43;;;;;;;1.50;0.70;;;8.30;99.90;;;;;;5074153;28;20465;-62
2022/09/18 02:42:42;;;;;;;2.53;1.10;;;8.20;99.90;;;;;;5063182;28;20636;-62
2022/09/18 02:45:31;;;;;;;1.80;0.73;;;8.20;99.90;;;;;;5072147;28;20498;-62
2022/09/18 02:48:30;;;;;;;8.93;1.80;;;8.30;99.90;;;;;;5061079;28;20817;-62
2022/09/18 02:51:22;;;;;;;10.33;0.73;;;8.30;99.90;;;;;;5073930;28;20891;-62
2022/09/18 02:54:00;;;;;;;2.83;1.03;;;8.30;99.90;;;;;;5073869;28;20414;-62
2022/09/18 02:56:44;;;;;;;1.43;0.83;;;8.30;99.90;;;;;;5071710;28;20505;-62
2022/09/18 02:59:25;;;;;;;2.03;0.80;;;8.30;99.90;;;;;;5073909;28;20418;-62
2022/09/18 03:01:52;;;;;;;2.47;1.00;;;8.30;99.90;;;;;;5073699;28;20485;-62
2022/09/18 03:04:25;;;;;;;1.40;0.60;;;8.30;99.90;;;;;;5042231;28;20516;-62
2022/09/18 03:06:51;;;;;;;4.63;0.90;;;8.30;99.90;;;;;;5073631;28;20829;-62
2022/09/18 03:09:17;;;;;;;2.30;0.97;;;8.30;99.90;;;;;;5073490;28;20407;-62
2022/09/18 03:11:43;;;;;;;1.53;0.60;;;8.30;99.90;;;;;;5072847;28;20937;-62
2022/09/18 03:14:09;;;;;;;5.13;1.00;;;8.30;99.90;;;;;;5074026;28;20683;-62
2022/09/18 03:16:35;;;;;;;2.07;0.77;;;8.30;99.90;;;;;;5072394;28;20419;-62
2022/09/18 03:19:01;;;;;;;2.00;0.90;;;8.20;99.90;;;;;;5055374;28;20778;-62
2022/09/18 03:21:26;;;;;;;2.80;0.80;;;8.20;99.90;;;;;;5073462;28;20711;-62
2022/09/18 03:23:52;;;;;;;1.87;0.97;;;8.20;99.90;;;;;;5045807;28;20250;-62
2022/09/18 03:26:18;;;;;;;1.73;0.97;;;8.20;99.90;;;;;;5067865;28;20181;-62
2022/09/18 03:28:44;;;;;;;1.40;0.73;;;8.20;99.90;;;;;;5073778;28;20173;-62
2022/09/18 03:31:10;;;;;;;2.17;0.83;;;8.20;99.90;;;;;;5073785;28;20434;-62
2022/09/18 03:33:37;;;;;;;2.03;0.90;;;8.20;99.90;;;;;;5081820;28;20181;-62
2022/09/18 03:36:04;;;;;;;2.60;0.60;;;8.20;99.90;;;;;;5072599;28;20455;-62
2022/09/18 03:38:31;;;;;;;3.10;1.00;;;8.20;99.90;;;;;;5072753;28;20422;-62
2022/09/18 03:40:56;;;;;;;2.33;1.10;;;8.10;99.90;;;;;;5073192;28;20415;-62
2022/09/18 03:43:22;;;;;;;1.30;0.60;;;8.10;99.90;;;;;;5073047;28;20965;-62
2022/09/18 03:45:48;;;;;;;1.57;0.70;;;8.10;99.90;;;;;;5072255;28;20169;-62
2022/09/18 03:48:14;;;;;;;1.40;0.80;;;8.10;99.90;;;;;;5073261;28;20177;-62
2022/09/18 03:50:39;;;;;;;2.13;0.97;;;8.10;99.90;;;;;;5072702;28;20184;-62
2022/09/18 03:53:07;;;;;;;1.30;0.50;;;8.20;99.90;;;;;;5072378;28;20192;-62
2022/09/18 03:55:33;;;;;;;2.50;0.90;;;8.20;99.90;;;;;;5071482;28;20540;-62
2022/09/18 03:57:59;;;;;;;1.40;0.63;;;8.20;99.90;;;;;;5072325;28;20986;-62
2022/09/18 04:00:24;;;;;;;1.90;1.00;;;8.20;99.90;;;;;;5072600;28;20451;-62
2022/09/18 04:02:50;;;;;;;4.17;1.00;;;8.20;99.90;;;;;;5072944;28;20546;-62
2022/09/18 04:05:16;;;;;;;5.60;0.97;;;8.20;99.90;;;;;;5072351;28;20248;-62
2022/09/18 04:07:41;;;;;;;2.40;1.00;;;8.20;99.90;;;;;;5072296;28;20685;-62
2022/09/18 04:10:07;;;;;;;3.10;0.93;;;8.20;99.90;;;;;;5072638;28;20545;-62
2022/09/18 04:12:33;;;;;;;2.27;0.70;;;8.20;99.90;;;;;;5072730;28;20177;-62
2022/09/18 04:14:59;;;;;;;2.07;0.90;;;8.20;99.90;;;;;;5071797;28;20518;-62
2022/09/18 04:17:25;;;;;;;2.67;0.87;;;8.20;99.90;;;;;;5071703;28;20636;-62
2022/09/18 04:19:51;;;;;;;1.73;0.83;;;8.30;99.90;;;;;;5072554;28;20196;-62
2022/09/18 04:22:17;;;;;;;2.13;0.70;;;8.30;99.90;;;;;;5072413;28;20427;-62
2022/09/18 04:24:44;;;;;;;7.97;0.87;;;8.30;99.90;;;;;;5067713;28;20565;-62
2022/09/18 04:27:09;;;;;;;1.30;0.63;;;8.30;99.90;;;;;;5070126;28;20708;-62
2022/09/18 04:29:35;;;;;;;1.60;0.80;;;8.30;99.90;;;;;;5072200;28;20442;-62
2022/09/18 04:32:01;;;;;;;1.83;0.87;;;8.40;99.90;;;;;;5076273;28;20173;-62
2022/09/18 04:34:26;;;;;;;1.20;0.60;;;8.40;99.90;;;;;;5077065;28;20641;-62
2022/09/18 04:36:52;;;;;;;8.50;0.70;;;8.40;99.90;;;;;;5071546;28;20265;-61
2022/09/18 04:39:18;;;;;;;5.83;1.00;;;8.50;99.90;;;;;;5071896;28;20580;-62
2022/09/18 04:41:44;;;;;;;1.30;0.60;;;8.50;99.90;;;;;;5058773;28;20185;-62
2022/09/18 04:44:10;;;;;;;1.30;0.60;;;8.50;99.90;;;;;;5072303;28;20197;-62
2022/09/18 04:46:36;;;;;;;1.90;1.00;;;8.50;99.90;;;;;;5057245;28;20435;-62
2022/09/18 04:49:02;;;;;;;3.00;0.70;;;8.50;99.90;;;;;;5054525;28;21085;-62
2022/09/18 04:51:27;;;;;;;2.83;0.93;;;8.50;99.90;;;;;;5071752;28;20177;-62
2022/09/18 04:53:53;;;;;;;1.87;0.97;;;8.40;99.90;;;;;;5071627;28;20694;-62
2022/09/18 04:56:19;;;;;;;1.40;0.70;;;8.40;99.90;;;;;;5068327;28;20176;-62
2022/09/18 04:58:44;;;;;;;3.67;0.77;;;8.40;99.90;;;;;;5076058;28;20559;-62
2022/09/18 05:01:10;;;;;;;2.57;1.00;;;8.40;99.90;;;;;;5071176;28;20181;-62
2022/09/18 05:03:36;;;;;;;1.90;0.70;;;8.40;99.90;;;;;;5060337;28;20217;-62
2022/09/18 05:06:01;;;;;;;3.20;0.97;;;8.40;99.90;;;;;;5069282;28;20255;-62
2022/09/18 05:08:28;;;;;;;1.40;0.80;;;8.40;99.90;;;;;;5070602;28;20177;-62
2022/09/18 05:10:54;;;;;;;1.40;0.80;;;8.40;99.90;;;;;;5058367;28;20298;-62
2022/09/18 05:13:19;;;;;;;1.73;0.70;;;8.40;99.90;;;;;;5071932;28;20498;-62
2022/09/18 05:15:45;;;;;;;7.47;1.23;;;8.40;99.90;;;;;;5069950;28;20185;-62
2022/09/18 05:18:11;;;;;;;1.73;0.60;;;8.40;99.90;;;;;;5053696;28;20231;-62
2022/09/18 05:20:37;;;;;;;2.07;0.77;;;8.40;99.90;;;;;;5071698;28;20663;-62
2022/09/18 05:23:03;;;;;;;1.30;0.60;;;8.40;99.90;;;;;;5070912;28;20443;-62
2022/09/18 05:25:30;;;;;;;1.43;0.80;;;8.30;99.90;;;;;;5060891;28;20416;-62
2022/09/18 05:27:58;;;;;;;1.30;0.70;;;8.40;99.90;;;;;;5062861;28;20625;-62
2022/09/18 05:30:25;;;;;;;3.43;1.20;;;8.40;99.90;;;;;;5065842;28;20447;-62
2022/09/18 05:33:01;;;;;;;1.50;0.70;;;8.40;99.90;;;;;;5069604;28;20993;-62
2022/09/18 05:35:29;;;;;;;1.60;0.83;;;8.40;99.90;;;;;;5057937;28;20502;-62
2022/09/18 05:37:55;;;;;;;2.07;1.00;;;8.40;99.90;;;;;;5070817;28;20443;-62
2022/09/18 05:40:29;;;;;;;1.40;0.80;;;8.40;99.90;;;;;;5071239;28;20498;-62
2022/09/18 05:42:55;;;;;;;6.00;1.00;;;8.40;99.90;;;;;;5057959;28;20595;-62
2022/09/18 05:45:21;;;;;;;3.00;1.30;;;8.50;99.90;;;;;;5070606;28;20522;-62
2022/09/18 05:48:13;;;;;;;10.43;1.10;;;8.40;99.90;;;;;;5070404;28;20185;-62
2022/09/18 05:50:39;;;;;;;2.83;0.90;;;8.40;99.90;;;;;;5059170;28;20268;-62
2022/09/18 05:53:05;;;;;;;3.97;0.90;;;8.40;99.90;;;;;;5057711;28;20528;-62
2022/09/18 05:55:32;;;;;;;1.60;0.90;;;8.50;99.90;;;;;;5066513;28;20427;-62
2022/09/18 05:57:59;;;;;;;2.23;0.80;;;8.50;99.90;;;;;;5076453;28;20457;-62
2022/09/18 06:00:26;;;;;;;2.90;1.00;;;8.40;99.90;;;;;;5070705;28;20434;-62
2022/09/18 06:02:57;;;;;;;2.20;1.03;;;8.40;99.90;;;;;;5071052;28;20746;-62
2022/09/18 06:05:23;;;;;;;1.50;0.77;;;8.40;99.90;;;;;;5070608;28;20450;-62
2022/09/18 06:07:50;;;;;;;4.60;1.13;;;8.50;99.90;;;;;;5070941;28;20412;-62
2022/09/18 06:10:16;;;;;;;2.03;1.17;;;8.50;99.90;;;;;;5070942;28;20423;-62
2022/09/18 06:12:42;;;;;;;2.70;1.60;;;8.50;99.90;;;;;;5064674;28;20424;-62
2022/09/18 06:15:09;;;;;;;3.67;1.53;;;8.40;99.90;;;;;;5063829;28;20520;-62
2022/09/18 06:17:34;;;;;;;2.20;0.93;;;8.40;99.90;;;;;;5057092;28;20177;-62
2022/09/18 06:20:00;;;;;;;3.60;1.03;;;8.40;99.90;;;;;;5073345;28;20426;-62
2022/09/18 06:22:26;;;;;;;2.03;1.00;;;8.40;99.90;;;;;;5061524;28;20189;-62
2022/09/18 06:24:51;;;;;;;1.67;1.00;;;8.50;99.90;;;;;;5068847;28;20477;-62
2022/09/18 06:27:17;;;;;;;5.90;1.63;;;8.50;99.90;;;;;;5062322;28;20181;-62
2022/09/18 06:29:43;;;;;;;1.77;1.13;;;8.50;99.90;;;;;;5074189;28;20521;-62
2022/09/18 06:32:09;;;;;;;1.87;0.93;;;8.60;99.90;;;;;;5079017;28;20181;-62
2022/09/18 06:34:34;;;;;;;1.90;1.13;;;8.60;99.90;;;;;;5079559;28;20185;-62
2022/09/18 06:37:00;;;;;;;4.27;1.00;;;8.60;99.90;;;;;;5060684;28;20825;-62
2022/09/18 06:39:25;;;;;;;8.00;1.67;;;8.70;99.90;;;;;;5073978;28;20256;-61
2022/09/18 06:41:51;;;;;;;1.97;1.20;;;8.70;99.90;;;;;;5074595;28;20583;-62
2022/09/18 06:44:17;;;;;;;2.10;1.10;;;8.80;99.90;;;;;;5074445;28;20197;-62
2022/09/18 06:46:42;;;;;;;10.20;1.40;;;8.90;99.90;;;;;;5073303;28;20197;-62
2022/09/18 06:49:08;;;;;;;4.17;1.50;;;9.00;99.90;;;;;;5074533;28;20209;-61
2022/09/18 06:51:34;;;;;;;9.93;2.37;;;9.00;99.90;;;;;;5074059;28;20204;-62
2022/09/18 06:53:59;;;;;;;2.23;1.60;;;9.00;99.90;;;;;;5074136;28;20416;-62
2022/09/18 06:56:25;;;;;;;1.93;1.03;;;9.10;99.90;;;;;;5077486;28;20177;-62
2022/09/18 06:58:52;;;;;;;1.73;1.00;;;9.20;99.90;;;;;;5058955;28;20564;-62
2022/09/18 07:01:18;;;;;;;4.07;1.63;;;9.20;99.90;;;;;;5069765;28;20706;-63
2022/09/18 07:03:46;;;;;;;2.13;1.10;;;9.10;99.90;;;;;;5084027;28;20462;-63
2022/09/18 07:06:12;;;;;;;1.80;0.93;;;9.10;99.90;;;;;;5074474;28;20260;-63
2022/09/18 07:08:37;;;;;;;2.70;1.20;;;9.20;99.90;;;;;;5073770;28;20843;-63
2022/09/18 07:11:03;;;;;;;6.53;1.70;;;9.10;99.90;;;;;;5073886;28;20192;-63
2022/09/18 07:13:33;;;;;;;2.13;1.03;;;9.10;99.90;;;;;;5073886;28;20192;-63
2022/09/18 07:15:59;;;;;;;2.00;0.90;;;9.10;99.90;;;;;;5054055;28;20192;-63
2022/09/18 07:18:25;;;;;;;2.93;1.03;;;9.10;99.90;;;;;;5074040;28;20907;-63
2022/09/18 07:20:52;;;;;;;5.10;1.17;;;9.10;99.90;;;;;;5061805;28;20660;-64
2022/09/18 07:23:18;;;;;;;1.80;0.80;;;9.20;99.90;;;;;;5073473;28;20542;-62
2022/09/18 07:25:44;;;;;;;3.23;1.13;;;9.20;99.90;;;;;;5065058;28;20588;-62
2022/09/18 07:28:10;;;;;;;1.83;0.80;;;9.20;99.90;;;;;;5073697;28;20742;-62
2022/09/18 07:30:37;;;;;;;1.60;1.10;;;9.20;99.90;;;;;;5072296;28;20240;-62
2022/09/18 07:33:05;;;;;;;1.77;0.80;;;9.20;99.90;;;;;;5073430;28;20769;-62
2022/09/18 07:35:31;;;;;;;1.90;0.80;;;9.30;99.90;;;;;;5072909;28;20866;-63
2022/09/18 07:38:01;;;;;;;2.10;0.90;;;9.20;99.90;;;;;;5073561;28;20816;-63
2022/09/18 07:40:27;;;;;;;2.47;1.20;;;9.10;99.90;;;;;;5072792;28;20411;-62
2022/09/18 07:43:04;;;;;;;1.87;1.17;;;9.20;99.90;;;;;;5073121;28;20553;-63
2022/09/18 07:45:30;;;;;;;2.60;0.83;;;9.20;99.90;;;;;;5072452;28;20406;-62
2022/09/18 07:47:55;;;;;;;3.40;1.40;;;9.20;99.90;;;;;;5073296;28;20976;-63
2022/09/18 07:50:22;;;;;;;1.60;0.60;;;9.30;99.90;;;;;;5065006;28;20173;-63
2022/09/18 07:52:52;;;;;;;1.87;0.80;;;9.30;99.90;;;;;;5067790;28;20173;-62
2022/09/18 07:55:19;;;;;;;1.67;0.87;;;9.20;99.90;;;;;;5072051;28;20422;-63
2022/09/18 07:57:46;;;;;;;3.70;1.17;;;9.30;99.90;;;;;;5076830;28;20494;-63
2022/09/18 08:00:13;;;;;;;1.40;0.80;;;9.30;99.90;;;;;;5072457;28;20419;-63
2022/09/18 08:02:39;;;;;;;2.90;1.03;;;9.40;99.90;;;;;;5072546;28;20498;-62
2022/09/18 08:05:05;;;;;;;1.47;0.70;;;9.60;99.90;;;;;;5071929;28;20469;-62
2022/09/18 08:07:31;;;;;;;2.17;0.90;;;9.60;99.90;;;;;;5081797;28;20419;-62
2022/09/18 08:09:56;;;;;;;1.97;0.77;;;9.70;99.90;;;;;;5060841;28;20891;-63
2022/09/18 08:12:22;;;;;;;2.67;1.17;;;9.80;99.90;;;;;;5072692;28;20201;-63
2022/09/18 08:14:48;;;;;;;1.60;0.80;;;9.80;99.90;;;;;;5072084;28;20254;-63
2022/09/18 08:17:13;;;;;;;2.37;0.70;;;9.80;99.90;;;;;;5071051;28;20223;-62
2022/09/18 08:19:39;;;;;;;1.40;0.60;;;9.90;99.90;;;;;;5072066;28;20196;-63
2022/09/18 08:22:04;;;;;;;3.53;0.80;;;10.00;99.90;;;;;;5072265;28;20276;-63
2022/09/18 08:24:30;;;;;;;2.03;0.77;;;10.00;99.90;;;;;;5071888;28;20212;-63
2022/09/18 08:27:02;;;;;;;1.60;0.67;;;10.00;99.90;;;;;;5071423;28;20269;-63
2022/09/18 08:29:28;;;;;;;2.13;0.63;;;10.10;99.90;;;;;;5071915;28;20223;-63
2022/09/18 08:31:54;;;;;;;1.40;0.90;;;10.20;99.90;;;;;;5070978;28;20420;-63
2022/09/18 08:34:19;;;;;;;1.60;0.70;;;10.20;99.90;;;;;;5071625;28;20831;-63
2022/09/18 08:36:45;;;;;;;1.50;0.60;;;10.20;99.90;;;;;;5062622;28;20181;-63
2022/09/18 08:39:10;;;;;;;2.80;0.70;;;10.20;99.90;;;;;;5071239;28;20184;-63
2022/09/18 08:42:06;;;;;;;1.70;0.70;;;10.20;99.90;;;;;;5071276;28;20185;-63
2022/09/18 08:44:44;;;;;;;2.33;0.90;;;10.20;99.90;;;;;;5068766;28;20656;-63
2022/09/18 08:47:24;;;;;;;1.20;0.57;;;10.20;99.90;;;;;;5071516;28;20419;-63
2022/09/18 08:49:53;;;;;;;2.50;0.87;;;10.20;99.90;;;;;;5054042;28;20431;-63
2022/09/18 08:52:24;;;;;;;1.93;0.60;;;10.20;99.90;;;;;;5071770;28;20423;-63
2022/09/18 08:55:08;;;;;;;2.60;1.10;;;10.20;99.90;;;;;;5070946;28;20510;-63
2022/09/18 08:57:45;;;;;;;3.57;1.13;;;10.20;99.90;;;;;;5073183;28;20771;-63
2022/09/18 09:00:30;;;;;;;2.00;0.80;;;10.20;99.90;;;;;;5071438;28;20431;-63
2022/09/18 09:03:27;;;;;;;2.00;0.87;;;10.30;99.90;;;;;;5069650;28;20466;-63
2022/09/18 09:05:57;;;;;;;1.77;0.90;;;10.20;99.90;;;;;;5075330;28;20423;-63
2022/09/18 09:08:53;;;;;;;2.50;0.90;;;10.30;99.90;;;;;;5080599;28;20465;-63
2022/09/18 09:11:35;;;;;;;3.43;1.07;;;10.20;99.90;;;;;;5071637;28;20914;-63
2022/09/18 09:14:27;;;;;;;2.73;1.20;;;10.30;99.90;;;;;;5071571;28;20508;-63
2022/09/18 09:17:32;;;;;;;2.40;0.90;;;10.30;99.90;;;;;;5051982;28;20439;-63
2022/09/18 09:20:19;;;;;;;5.63;1.27;;;10.30;99.90;;;;;;4986623;28;20502;-63
2022/09/18 09:22:58;;;;;;;2.07;0.90;;;10.40;99.90;;;;;;5068489;28;20423;-63
2022/09/18 09:25:30;;;;;;;1.30;0.60;;;10.40;99.90;;;;;;5070551;28;20415;-64
2022/09/18 09:28:03;;;;;;;8.47;1.23;;;10.40;99.90;;;;;;5071404;28;20447;-63
2022/09/18 09:30:32;;;;;;;1.43;0.70;;;10.40;99.90;;;;;;5071181;28;20421;-63
2022/09/18 09:33:22;;;;;;;3.90;1.10;;;10.40;99.90;;;;;;5071317;28;20422;-63
2022/09/18 09:35:53;;;;;;;11.03;1.10;;;10.60;99.90;;;;;;5070927;28;20432;-63
2022/09/18 09:38:33;;;;;;;5.83;1.37;;;10.90;99.90;;;;;;5070795;28;20403;-63
2022/09/18 09:41:16;;;;;;;3.37;0.70;;;11.10;99.90;;;;;;5071481;28;20748;-63
2022/09/18 09:44:03;;;;;;;1.20;0.50;;;11.20;99.90;;;;;;5071153;28;20459;-63
2022/09/18 09:46:40;;;;;;;3.83;1.03;;;11.30;99.90;;;;;;5070588;28;20411;-63
2022/09/18 09:49:16;;;;;;;1.97;0.70;;;11.40;99.90;;;;;;5071674;28;20738;-63
2022/09/18 09:51:51;;;;;;;6.00;1.33;;;11.60;99.90;;;;;;5071588;28;20769;-63
2022/09/18 09:54:17;;;;;;;2.80;0.97;;;11.70;99.90;;;;;;5072352;28;20925;-63
2022/09/18 09:56:58;;;;;;;3.33;1.07;;;12.10;99.90;;;;;;5077814;28;20414;-63
2022/09/18 09:59:39;;;;;;;2.43;0.67;;;12.30;99.90;;;;;;5077700;28;20184;-63
2022/09/18 10:02:29;;;;;;;2.13;0.80;;;12.50;99.90;;;;;;5075490;28;20418;-63
2022/09/18 10:05:21;;;;;;;2.70;1.03;;;12.30;99.90;;;;;;5074794;28;20499;-63
2022/09/18 10:08:00;;;;;;;2.53;0.70;;;12.30;99.90;;;;;;5081619;28;20437;-63
2022/09/18 10:10:29;;;;;;;2.47;1.20;;;12.40;99.90;;;;;;5075702;28;20414;-63
2022/09/18 10:13:04;;;;;;;3.97;0.50;;;12.50;99.90;;;;;;5074876;28;20411;-63
2022/09/18 10:15:38;;;;;;;10.43;1.77;;;12.70;99.90;;;;;;5073129;28;20407;-63
2022/09/18 10:18:11;;;;;;;2.43;0.80;;;13.10;99.90;;;;;;5075109;28;20808;-63
2022/09/18 10:20:38;;;;;;;5.20;1.37;;;13.30;99.90;;;;;;5074857;28;20418;-63
2022/09/18 10:23:29;;;;;;;3.67;0.60;;;13.50;99.90;;;;;;5056267;28;20534;-64
2022/09/18 10:25:59;;;;;;;1.50;0.70;;;13.30;99.90;;;;;;5065000;28;20438;-64
2022/09/18 10:28:28;;;;;;;4.50;1.80;;;13.40;99.90;;;;;;5065821;28;20433;-64
2022/09/18 10:30:56;;;;;;;2.80;1.40;;;13.30;99.90;;;;;;5068142;28;20434;-64
2022/09/18 10:33:48;;;;;;;2.17;1.30;;;13.20;99.90;;;;;;5065957;28;20427;-64
2022/09/18 10:36:31;;;;;;;4.20;2.43;;;13.00;99.90;;;;;;5064749;28;20490;-64
2022/09/18 10:38:58;;;;;;;3.10;1.83;;;13.00;99.90;;;;;;5074566;28;20952;-64
2022/09/18 10:41:27;;;;;;;13.00;6.47;;;13.00;99.90;;;;;;5056591;28;20427;-64
2022/09/18 10:44:19;;;;;;;14.80;10.30;;;13.00;99.90;;;;;;5072945;28;20862;-64
2022/09/18 10:46:59;;;;;;;5.30;1.83;;;12.70;99.90;;;;;;5045035;28;20774;-64
2022/09/18 10:49:31;;;;;;;7.03;1.57;;;12.50;99.90;;;;;;5074246;28;20433;-64
2022/09/18 10:52:30;;;;;;;1.90;1.00;;;12.60;99.90;;;;;;5074156;28;20447;-64
2022/09/18 10:55:08;;;;;;;1.53;0.93;;;12.90;99.90;;;;;;5073326;28;20456;-64
2022/09/18 10:57:44;;;;;;;2.80;0.90;;;13.00;99.90;;;;;;5072462;28;20429;-64
2022/09/18 11:00:35;;;;;;;2.00;0.67;;;13.00;99.90;;;;;;5072832;28;20419;-64
2022/09/18 11:03:22;;;;;;;2.70;1.13;;;13.10;99.90;;;;;;5074198;28;20421;-64
2022/09/18 11:06:00;;;;;;;2.20;0.80;;;13.20;99.90;;;;;;5072309;28;20407;-61
2022/09/18 11:08:32;;;;;;;3.00;1.40;;;13.30;99.90;;;;;;5082440;28;20427;-62
2022/09/18 11:11:25;;;;;;;2.53;1.20;;;13.60;99.90;;;;;;5081113;28;20498;-62
2022/09/18 11:13:59;;;;;;;11.87;1.00;;;13.80;99.90;;;;;;5073280;28;20419;-62
2022/09/18 11:16:54;;;;;;;3.80;1.03;;;13.90;99.90;;;;;;5072083;28;20447;-62
2022/09/18 11:19:36;;;;;;;2.43;0.80;;;14.20;99.90;;;;;;5071267;28;20453;-62
2022/09/18 11:22:05;;;;;;;4.47;0.70;;;14.40;99.90;;;;;;5073875;28;20427;-62
2022/09/18 11:24:34;;;;;;;2.73;1.00;;;14.60;99.90;;;;;;5073132;28;20600;-62
2022/09/18 11:27:16;;;;;;;1.97;0.90;;;14.70;99.40;;;;;;5064052;28;20504;-62
2022/09/18 11:29:41;;;;;;;2.63;0.83;;;14.30;99.40;;;;;;5072191;28;20506;-62
2022/09/18 11:32:30;;;;;;;2.50;1.67;;;14.40;99.90;;;;;;5073306;28;20975;-62
2022/09/18 11:35:00;;;;;;;1.40;0.70;;;14.30;99.90;;;;;;5068236;28;20192;-62
2022/09/18 11:37:33;;;;;;;2.60;1.00;;;14.10;99.90;;;;;;5073415;28;20449;-62
2022/09/18 11:40:06;;;;;;;1.60;0.73;;;14.30;99.90;;;;;;5073094;28;20911;-62
2022/09/18 11:42:32;;;;;;;2.57;1.33;;;14.50;99.90;;;;;;5073139;28;20419;-62
2022/09/18 11:45:18;;;;;;;6.77;1.17;;;14.40;99.40;;;;;;5071597;28;20469;-62
2022/09/18 11:47:56;;;;;;;8.10;0.80;;;14.10;99.30;;;;;;5067402;28;20188;-62
2022/09/18 11:50:29;;;;;;;3.10;0.90;;;13.80;99.20;;;;;;5072953;28;20407;-62
2022/09/18 11:53:00;;;;;;;2.63;1.33;;;13.50;99.10;;;;;;5073221;28;20411;-62
2022/09/18 11:55:35;;;;;;;5.53;0.97;;;13.70;99.30;;;;;;5071098;28;20438;-62
2022/09/18 11:58:24;;;;;;;3.80;0.83;;;14.20;99.70;;;;;;5076314;28;20406;-63
2022/09/18 12:01:18;;;;;;;4.27;1.27;;;14.60;98.80;;;;;;5071524;28;20446;-63
2022/09/18 12:04:12;;;;;;;2.43;0.90;;;14.90;96.80;;;;;;5072605;28;20880;-62
2022/09/18 12:06:57;;;;;;;1.60;0.93;;;15.00;97.40;;;;;;5072075;28;20922;-62
2022/09/18 12:09:39;;;;;;;2.33;1.00;;;15.60;96.10;;;;;;5079527;28;20806;-62
2022/09/18 12:12:14;;;;;;;8.83;2.10;;;15.50;96.20;;;;;;5068120;28;20915;-62
2022/09/18 12:15:02;;;;;;;2.37;0.90;;;15.30;96.60;;;;;;5071789;28;20460;-62
2022/09/18 12:17:55;;;;;;;1.40;0.70;;;14.90;96.40;;;;;;5068295;28;20408;-62
2022/09/18 12:20:29;;;;;;;3.53;1.50;;;14.70;95.80;;;;;;5072453;28;20936;-62
2022/09/18 12:23:00;;;;;;;2.13;1.00;;;14.20;95.10;;;;;;5072891;28;20418;-63
2022/09/18 12:25:42;;;;;;;3.53;1.17;;;13.90;94.80;;;;;;5071649;28;20510;-62
2022/09/18 12:28:28;;;;;;;4.97;1.50;;;13.70;96.10;;;;;;5072366;28;20405;-62
2022/09/18 12:31:12;;;;;;;2.60;1.20;;;13.70;95.90;;;;;;5071312;28;20929;-62
2022/09/18 12:33:56;;;;;;;3.67;1.07;;;13.50;96.30;;;;;;5072339;28;20439;-62
2022/09/18 12:36:40;;;;;;;4.60;1.27;;;13.50;96.70;;;;;;5066976;28;20763;-62
2022/09/18 12:39:35;;;;;;;1.83;0.87;;;13.50;94.60;;;;;;5070735;28;20423;-62
2022/09/18 12:42:38;;;;;;;2.70;0.80;;;13.30;93.50;;;;;;5071933;28;20415;-62
2022/09/18 12:45:30;;;;;;;1.53;0.60;;;13.20;94.60;;;;;;5070173;28;20997;-62
2022/09/18 12:48:31;;;;;;;1.73;0.67;;;13.20;94.60;;;;;;5023496;28;20429;-62
2022/09/18 12:51:23;;;;;;;2.40;1.00;;;13.40;95.30;;;;;;4970854;28;20428;-62
2022/09/18 12:54:15;;;;;;;1.77;0.70;;;13.60;94.70;;;;;;5068544;28;20430;-62
2022/09/18 12:56:43;;;;;;;1.47;0.60;;;13.50;93.90;;;;;;5070056;28;20422;-62
2022/09/18 12:59:09;;;;;;;2.50;1.20;;;13.60;92.40;;;;;;5071523;28;20423;-62
2022/09/18 13:01:52;;;;;;;1.73;0.60;;;13.50;92.50;;;;;;5071093;28;20427;-62
2022/09/18 13:04:35;;;;;;;1.97;0.60;;;13.80;92.00;;;;;;5071839;28;20721;-62
2022/09/18 13:07:10;;;;;;;2.80;1.00;;;14.10;91.90;;;;;;5071575;28;20407;-62
2022/09/18 13:10:05;;;;;;;6.50;0.60;;;14.20;93.40;;;;;;5081453;28;20500;-62
2022/09/18 13:12:37;;;;;;;3.67;0.70;;;14.80;91.60;;;;;;5067169;28;20473;-62
2022/09/18 13:15:15;;;;;;;1.67;0.60;;;14.70;89.10;;;;;;5070452;28;20411;-63
2022/09/18 13:17:47;;;;;;;1.40;0.50;;;14.90;89.50;;;;;;5070336;28;20419;-63
2022/09/18 13:20:19;;;;;;;1.70;0.57;;;14.80;90.60;;;;;;5071802;28;20459;-63